createdAt,value
2022-12-01T00:01:02.124Z,99261.28
2022-12-01T00:03:32.121Z,99252.16
2022-12-01T00:06:03.538Z,99264.19
2022-12-01T00:08:30.061Z,99261.75
2022-12-01T00:10:56.643Z,99261.75
2022-12-01T00:13:23.123Z,99264.94
2022-12-01T00:15:49.575Z,99262.50
2022-12-01T00:18:16.037Z,99264.34
2022-12-01T00:20:42.537Z,99262.97
2022-12-01T00:23:08.998Z,99269.84
2022-12-01T00:25:35.462Z,99264.78
2022-12-01T00:28:01.914Z,99265.25
2022-12-01T00:30:28.386Z,99264.16
2022-12-01T00:32:54.890Z,99258.50
2022-12-01T00:35:21.342Z,99262.47
2022-12-01T00:37:47.808Z,99264.84
2022-12-01T00:40:14.352Z,99258.13
2022-12-01T00:42:40.894Z,99255.94
2022-12-01T00:47:33.833Z,99262.34
2022-12-01T00:50:00.282Z,99261.47
2022-12-01T00:52:26.729Z,99266.22
2022-12-01T00:54:53.178Z,99268.09
2022-12-01T00:57:19.645Z,99263.00
2022-12-01T00:59:46.368Z,99259.22
2022-12-01T01:02:13.037Z,99266.66
2022-12-01T01:04:39.552Z,99264.22
2022-12-01T01:07:06.048Z,99267.16
2022-12-01T01:09:33.208Z,99270.06
2022-12-01T01:11:59.772Z,99276.69
2022-12-01T01:14:26.231Z,99273.22
2022-12-01T01:16:52.724Z,99280.41
2022-12-01T01:19:19.229Z,99271.03
2022-12-01T01:21:45.686Z,99269.94
2022-12-01T01:24:12.398Z,99274.69
2022-12-01T01:26:38.870Z,99274.13
2022-12-01T01:29:07.478Z,99275.66
2022-12-01T01:31:34.177Z,99278.81
2022-12-01T01:34:00.742Z,99278.22
2022-12-01T01:36:27.368Z,99279.28
2022-12-01T01:38:55.333Z,99273.13
2022-12-01T01:41:22.503Z,99282.44
2022-12-01T01:43:53.283Z,99283.50
2022-12-01T01:46:20.752Z,99279.19
2022-12-01T01:49:00.724Z,99281.56
2022-12-01T01:51:33.757Z,99292.44
2022-12-01T01:54:03.693Z,99294.31
2022-12-01T01:56:30.327Z,99280.66
2022-12-01T01:58:56.783Z,99293.16
2022-12-01T02:01:23.267Z,99290.75
2022-12-01T02:03:49.973Z,99292.38
2022-12-01T02:06:16.469Z,99291.56
2022-12-01T02:08:42.978Z,99298.19
2022-12-01T02:11:22.525Z,99295.53
2022-12-01T02:13:58.773Z,99293.09
2022-12-01T02:16:50.057Z,99291.47
2022-12-01T02:19:28.700Z,99291.72
2022-12-01T02:22:21.191Z,99291.16
2022-12-01T02:24:53.357Z,99295.34
2022-12-01T02:27:48.852Z,99293.50
2022-12-01T02:30:17.312Z,99295.59
2022-12-01T02:33:04.325Z,99288.66
2022-12-01T02:35:33.650Z,99293.44
2022-12-01T02:38:16.301Z,99292.03
2022-12-01T02:41:01.426Z,99293.91
2022-12-01T02:43:49.495Z,99289.84
2022-12-01T02:46:24.313Z,99289.53
2022-12-01T02:48:51.827Z,99286.03
2022-12-01T02:51:20.975Z,99290.56
2022-12-01T02:53:47.450Z,99291.88
2022-12-01T02:56:15.999Z,99291.28
2022-12-01T02:58:43.989Z,99284.59
2022-12-01T03:01:15.320Z,99282.97
2022-12-01T03:04:03.729Z,99282.97
2022-12-01T03:06:49.840Z,99286.66
2022-12-01T03:09:39.518Z,99281.59
2022-12-01T03:12:14.769Z,99283.53
2022-12-01T03:15:03.352Z,99277.94
2022-12-01T03:17:34.314Z,99279.00
2022-12-01T03:20:24.131Z,99284.59
2022-12-01T03:22:53.791Z,99282.97
2022-12-01T03:25:20.261Z,99281.34
2022-12-01T03:28:13.399Z,99284.25
2022-12-01T03:30:33.828Z,99279.16
2022-12-01T03:33:04.637Z,99281.50
2022-12-01T03:35:33.664Z,99287.63
2022-12-01T03:38:06.520Z,99281.97
2022-12-01T03:40:32.991Z,99281.25
2022-12-01T03:43:10.814Z,99282.31
2022-12-01T03:45:44.919Z,99279.88
2022-12-01T03:48:11.283Z,99282.78
2022-12-01T03:50:54.555Z,99275.03
2022-12-01T03:53:26.108Z,99279.53
2022-12-01T03:55:55.968Z,99281.66
2022-12-01T03:58:26.225Z,99278.16
2022-12-01T04:00:57.558Z,99283.47
2022-12-01T04:03:24.974Z,99286.16
2022-12-01T04:05:51.455Z,99282.13
2022-12-01T04:08:17.931Z,99292.78
2022-12-01T04:10:44.415Z,99285.03
2022-12-01T04:13:16.782Z,99284.69
2022-12-01T04:15:43.572Z,99285.50
2022-12-01T04:18:10.040Z,99287.00
2022-12-01T04:20:36.489Z,99283.19
2022-12-01T04:23:02.957Z,99289.00
2022-12-01T04:25:29.740Z,99287.13
2022-12-01T04:27:56.181Z,99289.81
2022-12-01T04:30:22.707Z,99287.94
2022-12-01T04:32:49.147Z,99289.00
2022-12-01T04:35:15.633Z,99286.09
2022-12-01T04:37:42.081Z,99281.00
2022-12-01T04:40:08.858Z,99283.66
2022-12-01T04:42:35.348Z,99284.47
2022-12-01T04:45:01.786Z,99286.56
2022-12-01T04:47:28.240Z,99286.56
2022-12-01T04:49:54.728Z,99287.34
2022-12-01T04:52:21.807Z,99283.09
2022-12-01T04:54:48.255Z,99280.66
2022-12-01T04:57:15.057Z,99290.50
2022-12-01T04:59:41.513Z,99292.38
2022-12-01T05:02:08.078Z,99290.72
2022-12-01T05:04:38.440Z,99280.56
2022-12-01T05:07:05.243Z,99286.13
2022-12-01T05:09:31.763Z,99292.75
2022-12-01T05:11:58.468Z,99300.72
2022-12-01T05:14:24.935Z,99296.66
2022-12-01T05:16:51.407Z,99300.38
2022-12-01T05:19:36.437Z,99293.69
2022-12-01T05:22:03.137Z,99294.72
2022-12-01T05:24:29.733Z,99295.78
2022-12-01T05:26:56.179Z,99299.47
2022-12-01T05:29:22.641Z,99306.31
2022-12-01T05:31:49.391Z,99299.84
2022-12-01T05:34:16.023Z,99308.06
2022-12-01T05:36:42.490Z,99307.28
2022-12-01T05:39:08.959Z,99308.53
2022-12-01T05:41:35.412Z,99309.59
2022-12-01T05:44:02.298Z,99306.94
2022-12-01T05:46:28.998Z,99313.31
2022-12-01T05:48:55.516Z,99311.69
2022-12-01T05:51:21.967Z,99316.41
2022-12-01T05:53:48.756Z,99320.13
2022-12-01T05:56:15.198Z,99321.19
2022-12-01T05:58:41.670Z,99325.69
2022-12-01T06:01:08.194Z,99324.31
2022-12-01T06:03:34.638Z,99325.91
2022-12-01T06:06:01.115Z,99330.44
2022-12-01T06:08:27.701Z,99330.44
2022-12-01T06:10:54.156Z,99331.47
2022-12-01T06:13:20.598Z,99333.34
2022-12-01T06:15:56.292Z,99337.84
2022-12-01T06:18:23.082Z,99332.53
2022-12-01T06:20:49.695Z,99344.19
2022-12-01T06:23:16.147Z,99340.72
2022-12-01T06:25:42.820Z,99341.78
2022-12-01T06:28:09.292Z,99346.53
2022-12-01T06:30:35.733Z,99345.50
2022-12-01T06:33:02.197Z,99342.25
2022-12-01T06:35:28.645Z,99355.78
2022-12-01T06:37:55.097Z,99353.38
2022-12-01T06:40:21.556Z,99359.75
2022-12-01T06:42:47.997Z,99356.03
2022-12-01T06:45:14.532Z,99355.22
2022-12-01T06:47:41.063Z,99359.75
2022-12-01T06:50:08.282Z,99368.75
2022-12-01T06:52:35.160Z,99363.09
2022-12-01T06:55:03.794Z,99368.19
2022-12-01T06:57:30.608Z,99367.81
2022-12-01T06:59:57.324Z,99361.94
2022-12-01T07:02:24.240Z,99369.31
2022-12-01T07:04:50.721Z,99367.72
2022-12-01T07:07:17.445Z,99365.84
2022-12-01T07:09:44.337Z,99373.03
2022-12-01T07:12:10.830Z,99364.25
2022-12-01T07:14:37.812Z,99372.22
2022-12-01T07:17:04.546Z,99375.94
2022-12-01T07:19:31.200Z,99374.06
2022-12-01T07:21:57.793Z,99378.34
2022-12-01T07:24:24.500Z,99375.13
2022-12-01T07:26:50.945Z,99385.78
2022-12-01T07:29:17.465Z,99386.78
2022-12-01T07:31:44.085Z,99395.63
2022-12-01T07:34:13.406Z,99393.59
2022-12-01T07:36:39.854Z,99395.66
2022-12-01T07:39:07.513Z,99397.75
2022-12-01T07:41:34.332Z,99397.53
2022-12-01T07:44:01.620Z,99397.06
2022-12-01T07:46:28.286Z,99397.88
2022-12-01T07:48:55.205Z,99395.47
2022-12-01T07:51:22.388Z,99392.81
2022-12-01T07:53:49.539Z,99400.78
2022-12-01T07:56:16.323Z,99404.25
2022-12-01T07:58:42.781Z,99409.56
2022-12-01T08:01:13.827Z,99399.50
2022-12-01T08:03:40.478Z,99404.81
2022-12-01T08:06:07.258Z,99406.69
2022-12-01T08:08:34.470Z,99407.72
2022-12-01T08:11:02.162Z,99408.78
2022-12-01T08:13:28.776Z,99403.66
2022-12-01T08:15:55.273Z,99405.50
2022-12-01T08:18:22.812Z,99410.03
2022-12-01T08:20:50.114Z,99407.59
2022-12-01T08:23:16.613Z,99407.81
2022-12-01T08:25:43.068Z,99407.00
2022-12-01T08:28:09.521Z,99407.47
2022-12-01T08:30:36.143Z,99417.03
2022-12-01T08:33:02.654Z,99418.03
2022-12-01T08:35:29.117Z,99419.75
2022-12-01T08:37:55.703Z,99427.41
2022-12-01T08:40:22.232Z,99426.13
2022-12-01T08:42:48.695Z,99416.97
2022-12-01T08:45:15.193Z,99433.53
2022-12-01T08:47:41.662Z,99426.97
2022-12-01T08:50:08.356Z,99426.78
2022-12-01T08:52:34.952Z,99434.28
2022-12-01T08:55:01.507Z,99441.63
2022-12-01T08:57:31.407Z,99440.47
2022-12-01T08:59:57.902Z,99435.06
2022-12-01T09:02:24.537Z,99442.50
2022-12-01T09:04:51.321Z,99433.59
2022-12-01T09:07:21.538Z,99429.09
2022-12-01T09:09:52.448Z,99428.09
2022-12-01T09:12:18.893Z,99439.28
2022-12-01T09:14:49.568Z,99428.34
2022-12-01T09:17:16.576Z,99431.56
2022-12-01T09:19:43.874Z,99436.44
2022-12-01T09:22:10.648Z,99444.56
2022-12-01T09:24:37.185Z,99443.50
2022-12-01T09:27:03.684Z,99443.44
2022-12-01T09:29:30.439Z,99436.13
2022-12-01T09:31:57.208Z,99442.84
2022-12-01T09:34:23.801Z,99434.84
2022-12-01T09:36:50.285Z,99434.84
2022-12-01T09:39:19.041Z,99442.38
2022-12-01T09:42:09.082Z,99441.34
2022-12-01T09:44:40.092Z,99434.97
2022-12-01T09:47:22.228Z,99441.34
2022-12-01T09:50:02.977Z,99433.13
2022-12-01T09:52:39.672Z,99439.72
2022-12-01T09:55:11.607Z,99428.03
2022-12-01T09:57:39.787Z,99432.31
2022-12-01T10:00:20.990Z,99429.44
2022-12-01T10:03:06.529Z,99424.25
2022-12-01T10:09:25.760Z,99430.16
2022-12-01T10:11:54.953Z,99425.88
2022-12-01T10:14:22.055Z,99424.69
2022-12-01T10:17:19.284Z,99420.63
2022-12-01T10:19:57.795Z,99422.78
2022-12-01T10:22:31.892Z,99416.22
2022-12-01T10:25:03.461Z,99425.81
2022-12-01T10:27:42.768Z,99424.31
2022-12-01T10:30:16.182Z,99423.28
2022-12-01T10:33:07.179Z,99428.38
2022-12-01T10:35:37.005Z,99416.91
2022-12-01T10:38:06.717Z,99418.31
2022-12-01T10:40:36.659Z,99413.44
2022-12-01T10:43:03.207Z,99411.38
2022-12-01T10:45:33.770Z,99422.16
2022-12-01T10:48:15.021Z,99415.19
2022-12-01T10:51:16.805Z,99418.88
2022-12-01T10:53:43.317Z,99415.19
2022-12-01T10:56:16.049Z,99409.06
2022-12-01T10:58:48.092Z,99411.50
2022-12-01T11:01:22.399Z,99408.50
2022-12-01T11:03:50.994Z,99410.09
2022-12-01T11:06:21.705Z,99410.34
2022-12-01T11:09:25.957Z,99402.56
2022-12-01T11:12:15.116Z,99397.25
2022-12-01T11:14:44.865Z,99397.50
2022-12-01T11:17:31.293Z,99396.69
2022-12-01T11:19:57.902Z,99396.69
2022-12-01T11:22:30.685Z,99388.94
2022-12-01T11:25:00.835Z,99388.34
2022-12-01T11:27:30.333Z,99398.16
2022-12-01T11:30:04.751Z,99385.91
2022-12-01T11:32:36.114Z,99394.69
2022-12-01T11:35:14.524Z,99400.03
2022-12-01T11:38:13.302Z,99397.38
2022-12-01T11:40:54.980Z,99393.09
2022-12-01T11:43:29.558Z,99396.31
2022-12-01T11:45:57.130Z,99389.16
2022-12-01T11:48:28.602Z,99397.81
2022-12-01T11:51:08.280Z,99397.47
2022-12-01T11:53:36.796Z,99394.81
2022-12-01T11:56:20.762Z,99387.41
2022-12-01T11:58:47.828Z,99387.16
2022-12-01T12:01:23.337Z,99397.00
2022-12-01T12:04:04.386Z,99392.50
2022-12-01T12:06:40.476Z,99386.59
2022-12-01T12:09:25.957Z,99388.44
2022-12-01T12:12:16.569Z,99383.38
2022-12-01T12:15:17.273Z,99381.16
2022-12-01T12:18:05.621Z,99388.53
2022-12-01T12:20:34.368Z,99379.97
2022-12-01T12:23:34.990Z,99383.69
2022-12-01T12:26:21.159Z,99382.88
2022-12-01T12:29:15.970Z,99378.94
2022-12-01T12:32:03.858Z,99376.19
2022-12-01T12:34:57.003Z,99377.69
2022-12-01T12:37:33.298Z,99375.97
2022-12-01T12:40:21.878Z,99372.88
2022-12-01T12:42:52.350Z,99373.66
2022-12-01T12:45:35.357Z,99364.63
2022-12-01T12:48:13.063Z,99374.84
2022-12-01T12:50:56.376Z,99371.50
2022-12-01T12:53:27.207Z,99370.69
2022-12-01T12:55:57.622Z,99363.75
2022-12-01T12:58:27.566Z,99371.25
2022-12-01T13:01:06.028Z,99370.00
2022-12-01T13:03:35.675Z,99368.38
2022-12-01T13:06:06.730Z,99361.75
2022-12-01T13:08:58.161Z,99367.09
2022-12-01T13:11:38.450Z,99363.38
2022-12-01T13:14:12.092Z,99359.09
2022-12-01T13:16:44.264Z,99362.56
2022-12-01T13:19:28.694Z,99357.50
2022-12-01T13:21:55.115Z,99356.31
2022-12-01T13:24:23.978Z,99355.97
2022-12-01T13:27:13.280Z,99361.66
2022-12-01T13:29:44.425Z,99356.22
2022-12-01T13:32:28.993Z,99354.66
2022-12-01T13:34:55.565Z,99354.03
2022-12-01T13:37:26.754Z,99343.25
2022-12-01T13:39:54.215Z,99347.06
2022-12-01T13:42:27.053Z,99348.69
2022-12-01T13:45:01.053Z,99347.47
2022-12-01T13:47:39.941Z,99343.91
2022-12-01T13:50:47.874Z,99347.03
2022-12-01T13:53:20.275Z,99352.78
2022-12-01T13:56:06.020Z,99346.28
2022-12-01T13:58:32.639Z,99347.66
2022-12-01T14:01:21.095Z,99349.03
2022-12-01T14:04:01.041Z,99348.81
2022-12-01T14:06:49.034Z,99345.66
2022-12-01T14:09:26.427Z,99352.03
2022-12-01T14:11:56.364Z,99344.38
2022-12-01T14:14:26.270Z,99347.03
2022-12-01T14:16:58.678Z,99347.16
2022-12-01T14:19:40.797Z,99340.66
2022-12-01T14:22:07.740Z,99348.50
2022-12-01T14:24:38.275Z,99354.41
2022-12-01T14:27:05.008Z,99349.22
2022-12-01T14:29:38.650Z,99354.06
2022-12-01T14:32:08.297Z,99365.41
2022-12-01T14:34:35.443Z,99362.50
2022-12-01T14:37:14.047Z,99358.31
2022-12-01T14:39:42.326Z,99364.13
2022-12-01T14:42:11.709Z,99366.78
2022-12-01T14:44:43.218Z,99378.25
2022-12-01T14:47:16.428Z,99368.91
2022-12-01T14:50:18.583Z,99371.06
2022-12-01T14:52:54.357Z,99378.59
2022-12-01T14:55:39.118Z,99368.97
2022-12-01T14:58:25.575Z,99361.53
2022-12-01T15:01:05.992Z,99374.63
2022-12-01T15:03:41.751Z,99378.13
2022-12-01T15:06:08.428Z,99379.41
2022-12-01T15:11:25.376Z,99378.31
2022-12-01T15:13:53.547Z,99367.16
2022-12-01T15:16:21.888Z,99365.88
2022-12-01T15:18:48.699Z,99364.84
2022-12-01T15:21:29.450Z,99362.50
2022-12-01T15:24:00.756Z,99355.78
2022-12-01T15:26:45.251Z,99360.09
2022-12-01T15:29:19.153Z,99359.97
2022-12-01T15:31:48.378Z,99357.00
2022-12-01T15:34:23.733Z,99352.69
2022-12-01T15:36:51.190Z,99354.53
2022-12-01T15:39:19.759Z,99359.88
2022-12-01T15:41:48.538Z,99364.81
2022-12-01T15:44:27.057Z,99353.94
2022-12-01T15:46:53.521Z,99352.50
2022-12-01T15:49:27.553Z,99357.13
2022-12-01T15:51:53.878Z,99357.94
2022-12-01T15:54:23.169Z,99352.59
2022-12-01T16:00:36.546Z,99354.69
2022-12-01T16:03:03.251Z,99352.28
2022-12-01T16:05:33.232Z,99358.41
2022-12-01T16:08:16.953Z,99351.69
2022-12-01T16:10:43.662Z,99361.56
2022-12-01T16:13:45.104Z,99357.28
2022-12-01T16:16:26.471Z,99360.41
2022-12-01T16:18:57.686Z,99364.13
2022-12-01T16:21:24.288Z,99358.22
2022-12-01T16:24:04.838Z,99361.13
2022-12-01T16:26:32.564Z,99365.63
2022-12-01T16:28:59.108Z,99358.94
2022-12-01T16:31:26.174Z,99360.56
2022-12-01T16:34:13.931Z,99359.16
2022-12-01T16:36:45.118Z,99363.69
2022-12-01T16:39:15.259Z,99361.00
2022-12-01T16:41:44.599Z,99360.19
2022-12-01T16:44:28.967Z,99359.13
2022-12-01T16:46:55.904Z,99354.50
2022-12-01T16:49:22.338Z,99358.72
2022-12-01T16:51:57.039Z,99360.50
2022-12-01T16:54:25.245Z,99368.75
2022-12-01T16:56:51.716Z,99372.69
2022-12-01T16:59:18.425Z,99374.88
2022-12-01T17:01:44.887Z,99370.53
2022-12-01T17:04:11.435Z,99369.69
2022-12-01T17:06:38.574Z,99368.09
2022-12-01T17:09:05.004Z,99368.59
2022-12-01T17:11:32.102Z,99372.13
2022-12-01T17:13:58.688Z,99369.78
2022-12-01T17:16:25.416Z,99366.88
2022-12-01T17:18:51.884Z,99366.88
2022-12-01T17:21:18.331Z,99366.16
2022-12-01T17:23:44.781Z,99367.28
2022-12-01T17:26:13.411Z,99356.03
2022-12-01T17:28:39.860Z,99367.59
2022-12-01T17:31:06.750Z,99365.00
2022-12-01T17:33:33.512Z,99363.72
2022-12-01T17:36:12.744Z,99359.97
2022-12-01T17:38:43.154Z,99358.63
2022-12-01T17:41:11.482Z,99359.19
2022-12-01T17:46:05.626Z,99360.06
2022-12-01T17:48:40.427Z,99363.31
2022-12-01T17:51:07.064Z,99356.91
2022-12-01T17:53:33.517Z,99358.78
2022-12-01T17:55:59.919Z,99359.66
2022-12-01T17:58:26.556Z,99365.53
2022-12-01T18:00:53.352Z,99364.25
2022-12-01T18:03:19.994Z,99372.53
2022-12-01T18:06:01.075Z,99369.84
2022-12-01T18:08:29.327Z,99363.88
2022-12-01T18:10:55.841Z,99368.13
2022-12-01T18:13:22.328Z,99363.63
2022-12-01T18:15:49.134Z,99366.59
2022-12-01T18:18:15.629Z,99367.25
2022-12-01T18:20:42.735Z,99375.34
2022-12-01T18:23:09.879Z,99376.56
2022-12-01T18:25:36.729Z,99375.75
2022-12-01T18:28:03.468Z,99379.81
2022-12-01T18:30:30.125Z,99382.78
2022-12-01T18:32:59.283Z,99370.72
2022-12-01T18:35:31.588Z,99381.66
2022-12-01T18:37:58.491Z,99379.81
2022-12-01T18:40:25.078Z,99376.06
2022-12-01T18:42:51.566Z,99376.31
2022-12-01T18:45:21.323Z,99376.31
2022-12-01T18:47:48.178Z,99381.88
2022-12-01T18:50:14.760Z,99376.56
2022-12-01T18:52:41.278Z,99387.50
2022-12-01T18:55:08.188Z,99387.75
2022-12-01T18:57:34.659Z,99375.75
2022-12-01T19:00:01.627Z,99375.81
2022-12-01T19:02:28.196Z,99373.06
2022-12-01T19:04:54.709Z,99372.28
2022-12-01T19:07:25.235Z,99375.69
2022-12-01T19:09:56.122Z,99373.81
2022-12-01T19:12:22.579Z,99375.75
2022-12-01T19:14:49.312Z,99377.69
2022-12-01T19:17:18.053Z,99374.69
2022-12-01T19:19:44.854Z,99377.53
2022-12-01T19:22:11.345Z,99374.53
2022-12-01T19:24:37.808Z,99382.81
2022-12-01T19:27:04.424Z,99374.38
2022-12-01T19:29:30.893Z,99381.66
2022-12-01T19:31:57.475Z,99378.41
2022-12-01T19:34:24.233Z,99372.28
2022-12-01T19:36:53.497Z,99377.59
2022-12-01T19:39:20.096Z,99373.56
2022-12-01T19:41:46.650Z,99369.06
2022-12-01T19:44:13.112Z,99373.34
2022-12-01T19:46:39.614Z,99368.78
2022-12-01T19:49:06.718Z,99360.78
2022-12-01T19:51:37.445Z,99369.28
2022-12-01T19:54:12.856Z,99363.31
2022-12-01T19:56:39.340Z,99371.53
2022-12-01T19:59:07.778Z,99368.31
2022-12-01T20:01:34.344Z,99371.78
2022-12-01T20:04:00.885Z,99375.94
2022-12-01T20:06:28.635Z,99372.53
2022-12-01T20:08:56.237Z,99371.13
2022-12-01T20:11:22.827Z,99366.75
2022-12-01T20:13:49.362Z,99374.97
2022-12-01T20:16:17.956Z,99370.44
2022-12-01T20:18:44.462Z,99364.88
2022-12-01T20:21:19.155Z,99364.72
2022-12-01T20:23:47.268Z,99365.56
2022-12-01T20:26:13.934Z,99370.66
2022-12-01T20:28:40.496Z,99367.19
2022-12-01T20:31:11.739Z,99367.50
2022-12-01T20:33:38.644Z,99370.44
2022-12-01T20:36:06.035Z,99375.25
2022-12-01T20:38:32.485Z,99375.03
2022-12-01T20:40:58.932Z,99372.09
2022-12-01T20:43:25.408Z,99367.41
2022-12-01T20:45:51.989Z,99365.81
2022-12-01T20:48:18.577Z,99369.88
2022-12-01T20:50:45.039Z,99372.84
2022-12-01T20:53:11.562Z,99358.69
2022-12-01T20:55:38.008Z,99366.94
2022-12-01T20:58:04.979Z,99366.94
2022-12-01T21:00:31.584Z,99354.13
2022-12-01T21:02:58.036Z,99363.19
2022-12-01T21:05:25.252Z,99350.06
2022-12-01T21:07:52.180Z,99353.81
2022-12-01T21:10:20.304Z,99345.53
2022-12-01T21:13:07.835Z,99353.09
2022-12-01T21:15:41.721Z,99348.63
2022-12-01T21:18:15.771Z,99354.56
2022-12-01T21:20:43.987Z,99352.75
2022-12-01T21:23:17.435Z,99350.97
2022-12-01T21:25:44.225Z,99347.72
2022-12-01T21:28:23.579Z,99347.50
2022-12-01T21:30:51.229Z,99349.09
2022-12-01T21:33:25.974Z,99343.16
2022-12-01T21:35:52.672Z,99341.06
2022-12-01T21:38:22.113Z,99343.44
2022-12-01T21:40:48.866Z,99345.00
2022-12-01T21:43:18.179Z,99348.16
2022-12-01T21:45:44.704Z,99347.59
2022-12-01T21:48:15.450Z,99346.50
2022-12-01T21:50:42.032Z,99338.66
2022-12-01T21:53:16.022Z,99336.75
2022-12-01T21:55:43.106Z,99337.94
2022-12-01T21:58:24.650Z,99339.91
2022-12-01T22:00:55.225Z,99332.75
2022-12-01T22:03:33.050Z,99340.47
2022-12-01T22:06:29.891Z,99327.34
2022-12-01T22:09:35.176Z,99334.31
2022-12-01T22:12:26.006Z,99328.16
2022-12-01T22:14:53.570Z,99324.13
2022-12-01T22:17:20.649Z,99318.41
2022-12-01T22:19:57.967Z,99313.25
2022-12-01T22:22:26.062Z,99325.69
2022-12-01T22:25:00.016Z,99321.31
2022-12-01T22:27:34.176Z,99322.06
2022-12-01T22:30:07.224Z,99316.44
2022-12-01T22:32:46.833Z,99321.47
2022-12-01T22:35:26.256Z,99319.28
2022-12-01T22:38:10.876Z,99314.19
2022-12-01T22:40:57.759Z,99306.66
2022-12-01T22:43:28.988Z,99308.78
2022-12-01T22:46:07.598Z,99304.75
2022-12-01T22:48:39.609Z,99305.00
2022-12-01T22:51:26.482Z,99308.16
2022-12-01T22:54:26.193Z,99302.53
2022-12-01T22:57:02.723Z,99306.22
2022-12-01T22:59:36.288Z,99304.09
2022-12-01T23:02:16.513Z,99303.50
2022-12-01T23:04:45.905Z,99298.69
2022-12-01T23:07:31.724Z,99304.25
2022-12-01T23:10:22.180Z,99305.31
2022-12-01T23:12:49.892Z,99295.69
2022-12-01T23:15:36.693Z,99288.75
2022-12-01T23:18:13.991Z,99291.06
2022-12-01T23:20:40.947Z,99294.78
2022-12-01T23:23:14.007Z,99288.88
2022-12-01T23:25:41.577Z,99281.59
2022-12-01T23:28:08.504Z,99290.94
2022-12-01T23:30:35.187Z,99282.59
2022-12-01T23:33:21.756Z,99285.53
2022-12-01T23:36:00.298Z,99285.44
2022-12-01T23:38:31.264Z,99280.59
2022-12-01T23:41:00.488Z,99288.63
2022-12-01T23:43:33.094Z,99280.03
2022-12-01T23:46:19.158Z,99275.19
2022-12-01T23:48:48.166Z,99278.34
2022-12-01T23:51:20.268Z,99273.28
2022-12-01T23:53:46.840Z,99274.56
2022-12-01T23:56:18.403Z,99267.88
2022-12-01T23:58:44.877Z,99262.75
